sensor_id;sensor_type;location;lat;lon;timestamp;temperature;humidity
18686;DHT22;9473;52.342;13.110;2023-04-25T17:04:58;10.20;99.90
18686;DHT22;9473;52.342;13.110;2023-04-25T17:07:24;10.10;99.90
18686;DHT22;9473;52.342;13.110;2023-04-25T17:09:51;10.10;99.90
18686;DHT22;9473;52.342;13.110;2023-04-25T17:12:17;10.00;99.90
18686;DHT22;9473;52.342;13.110;2023-04-25T17:14:44;9.90;99.90
18686;DHT22;9473;52.342;13.110;2023-04-25T17:17:11;10.00;99.90
18686;DHT22;9473;52.342;13.110;2023-04-25T17:19:37;9.90;99.90
18686;DHT22;9473;52.342;13.110;2023-04-25T17:22:05;9.90;99.90
18686;DHT22;9473;52.342;13.110;2023-04-25T17:24:32;9.90;99.90
18686;DHT22;9473;52.342;13.110;2023-04-25T17:26:58;9.90;99.90
18686;DHT22;9473;52.342;13.110;2023-04-25T17:29:26;10.00;99.90
18686;DHT22;9473;52.342;13.110;2023-04-25T17:31:52;10.00;99.90
18686;DHT22;9473;52.342;13.110;2023-04-25T17:34:21;10.00;99.90
18686;DHT22;9473;52.342;13.110;2023-04-25T17:36:47;10.00;99.90
18686;DHT22;9473;52.342;13.110;2023-04-25T17:39:15;9.90;99.90
18686;DHT22;9473;52.342;13.110;2023-04-25T17:41:42;9.90;99.90
18686;DHT22;9473;52.342;13.110;2023-04-25T17:44:08;10.00;99.90
18686;DHT22;9473;52.342;13.110;2023-04-25T17:46:35;9.80;99.90
18686;DHT22;9473;52.342;13.110;2023-04-25T17:49:02;9.90;99.90
18686;DHT22;9473;52.342;13.110;2023-04-25T17:51:29;9.80;99.90
18686;DHT22;9473;52.342;13.110;2023-04-25T17:53:55;9.70;99.90
18686;DHT22;9473;52.342;13.110;2023-04-25T17:56:23;9.80;99.90
18686;DHT22;9473;52.342;13.110;2023-04-25T17:58:50;9.90;99.90
18686;DHT22;9473;52.342;13.110;2023-04-25T18:01:16;9.70;99.90
18686;DHT22;9473;52.342;13.110;2023-04-25T18:03:43;9.70;99.90
18686;DHT22;9473;52.342;13.110;2023-04-25T18:06:13;9.70;99.90
18686;DHT22;9473;52.342;13.110;2023-04-25T18:08:40;9.70;99.90
18686;DHT22;9473;52.342;13.110;2023-04-25T18:11:06;9.70;99.90
18686;DHT22;9473;52.342;13.110;2023-04-25T18:13:34;9.70;99.90
18686;DHT22;9473;52.342;13.110;2023-04-25T18:16:01;10.30;99.90
18686;DHT22;9473;52.342;13.110;2023-04-25T18:18:28;9.70;99.90
18686;DHT22;9473;52.342;13.110;2023-04-25T18:20:58;9.70;99.90
18686;DHT22;9473;52.342;13.110;2023-04-25T18:23:25;9.70;99.90
18686;DHT22;9473;52.342;13.110;2023-04-25T18:25:52;9.70;99.90
18686;DHT22;9473;52.342;13.110;2023-04-25T18:28:18;9.50;99.90
18686;DHT22;9473;52.342;13.110;2023-04-25T18:30:47;9.70;99.90
18686;DHT22;9473;52.342;13.110;2023-04-25T18:33:15;9.60;99.90
18686;DHT22;9473;52.342;13.110;2023-04-25T18:35:41;9.60;99.90
18686;DHT22;9473;52.342;13.110;2023-04-25T18:38:08;9.50;99.90
18686;DHT22;9473;52.342;13.110;2023-04-25T18:40:34;9.40;99.90
18686;DHT22;9473;52.342;13.110;2023-04-25T18:43:01;9.50;99.90
18686;DHT22;9473;52.342;13.110;2023-04-25T18:45:28;9.40;99.90
18686;DHT22;9473;52.342;13.110;2023-04-25T18:47:55;9.50;99.90
18686;DHT22;9473;52.342;13.110;2023-04-25T18:50:22;9.30;99.90
18686;DHT22;9473;52.342;13.110;2023-04-25T18:52:50;9.30;99.90
18686;DHT22;9473;52.342;13.110;2023-04-25T18:55:17;9.30;99.90
18686;DHT22;9473;52.342;13.110;2023-04-25T18:57:43;9.30;99.90
18686;DHT22;9473;52.342;13.110;2023-04-25T19:00:11;9.30;99.90
18686;DHT22;9473;52.342;13.110;2023-04-25T19:02:38;9.30;99.90
18686;DHT22;9473;52.342;13.110;2023-04-25T19:05:07;9.30;99.90
18686;DHT22;9473;52.342;13.110;2023-04-25T19:07:34;9.40;99.90
18686;DHT22;9473;52.342;13.110;2023-04-25T19:10:02;9.30;99.90
18686;DHT22;9473;52.342;13.110;2023-04-25T19:12:28;9.40;99.90
18686;DHT22;9473;52.342;13.110;2023-04-25T19:14:55;9.30;99.90
18686;DHT22;9473;52.342;13.110;2023-04-25T19:17:21;9.10;99.90
18686;DHT22;9473;52.342;13.110;2023-04-25T19:19:48;9.30;99.90
18686;DHT22;9473;52.342;13.110;2023-04-25T19:22:16;9.40;99.90
18686;DHT22;9473;52.342;13.110;2023-04-25T19:24:42;9.40;99.90
18686;DHT22;9473;52.342;13.110;2023-04-25T19:27:09;9.30;99.90
18686;DHT22;9473;52.342;13.110;2023-04-25T19:29:35;9.30;99.90
18686;DHT22;9473;52.342;13.110;2023-04-25T19:32:03;9.40;99.90
18686;DHT22;9473;52.342;13.110;2023-04-25T19:34:30;9.30;99.90
18686;DHT22;9473;52.342;13.110;2023-04-25T19:36:57;9.20;99.90
18686;DHT22;9473;52.342;13.110;2023-04-25T19:39:25;9.20;99.90
18686;DHT22;9473;52.342;13.110;2023-04-25T19:41:53;9.10;99.90
18686;DHT22;9473;52.342;13.110;2023-04-25T19:44:20;9.10;99.90
18686;DHT22;9473;52.342;13.110;2023-04-25T19:46:47;9.10;99.90
18686;DHT22;9473;52.342;13.110;2023-04-25T19:49:13;9.00;99.90
18686;DHT22;9473;52.342;13.110;2023-04-25T19:51:41;8.90;99.90
18686;DHT22;9473;52.342;13.110;2023-04-25T19:54:07;9.00;99.90
18686;DHT22;9473;52.342;13.110;2023-04-25T19:56:35;8.90;99.90
18686;DHT22;9473;52.342;13.110;2023-04-25T19:59:02;8.70;99.90
18686;DHT22;9473;52.342;13.110;2023-04-25T20:01:28;8.90;99.90
18686;DHT22;9473;52.342;13.110;2023-04-25T20:03:55;8.90;99.90
18686;DHT22;9473;52.342;13.110;2023-04-25T20:06:22;8.80;99.90
18686;DHT22;9473;52.342;13.110;2023-04-25T20:08:51;8.90;99.90
18686;DHT22;9473;52.342;13.110;2023-04-25T20:11:18;8.80;99.90
18686;DHT22;9473;52.342;13.110;2023-04-25T20:13:45;8.30;99.90
18686;DHT22;9473;52.342;13.110;2023-04-25T20:16:12;8.80;99.90
18686;DHT22;9473;52.342;13.110;2023-04-25T20:18:44;8.80;99.90
18686;DHT22;9473;52.342;13.110;2023-04-25T20:21:10;8.70;99.90
18686;DHT22;9473;52.342;13.110;2023-04-25T20:23:37;8.60;99.90
18686;DHT22;9473;52.342;13.110;2023-04-25T20:26:03;8.60;99.90
18686;DHT22;9473;52.342;13.110;2023-04-25T20:28:29;8.60;99.90
18686;DHT22;9473;52.342;13.110;2023-04-25T20:30:57;8.60;99.90
18686;DHT22;9473;52.342;13.110;2023-04-25T20:33:24;8.60;99.90
18686;DHT22;9473;52.342;13.110;2023-04-25T20:35:51;8.60;99.90
18686;DHT22;9473;52.342;13.110;2023-04-25T20:38:18;8.60;99.90
18686;DHT22;9473;52.342;13.110;2023-04-25T20:40:44;8.80;99.90
18686;DHT22;9473;52.342;13.110;2023-04-25T20:43:11;8.50;99.90
18686;DHT22;9473;52.342;13.110;2023-04-25T20:45:38;8.50;99.90
18686;DHT22;9473;52.342;13.110;2023-04-25T20:48:07;8.50;99.90
18686;DHT22;9473;52.342;13.110;2023-04-25T20:50:34;8.50;99.90
18686;DHT22;9473;52.342;13.110;2023-04-25T20:53:00;8.40;99.90
18686;DHT22;9473;52.342;13.110;2023-04-25T20:55:28;8.30;99.90
18686;DHT22;9473;52.342;13.110;2023-04-25T20:57:55;8.30;99.90
18686;DHT22;9473;52.342;13.110;2023-04-25T21:00:22;8.30;99.90
18686;DHT22;9473;52.342;13.110;2023-04-25T21:02:54;8.20;99.90
18686;DHT22;9473;52.342;13.110;2023-04-25T21:05:22;8.30;99.90
18686;DHT22;9473;52.342;13.110;2023-04-25T21:07:49;8.30;99.90
18686;DHT22;9473;52.342;13.110;2023-04-25T21:10:17;8.20;99.90
18686;DHT22;9473;52.342;13.110;2023-04-25T21:12:43;8.30;99.90
18686;DHT22;9473;52.342;13.110;2023-04-25T21:15:13;8.20;99.90
18686;DHT22;9473;52.342;13.110;2023-04-25T21:17:42;8.20;99.90
18686;DHT22;9473;52.342;13.110;2023-04-25T21:20:11;8.20;99.90
18686;DHT22;9473;52.342;13.110;2023-04-25T21:22:39;8.30;99.90
18686;DHT22;9473;52.342;13.110;2023-04-25T21:25:13;8.20;99.90
18686;DHT22;9473;52.342;13.110;2023-04-25T21:27:43;8.20;99.90
18686;DHT22;9473;52.342;13.110;2023-04-25T21:30:11;8.10;99.90
18686;DHT22;9473;52.342;13.110;2023-04-25T21:32:38;8.20;99.90
18686;DHT22;9473;52.342;13.110;2023-04-25T21:35:05;8.10;99.90
18686;DHT22;9473;52.342;13.110;2023-04-25T21:37:32;8.20;99.90
18686;DHT22;9473;52.342;13.110;2023-04-25T21:40:00;7.90;99.90
18686;DHT22;9473;52.342;13.110;2023-04-25T21:42:26;8.00;99.90
18686;DHT22;9473;52.342;13.110;2023-04-25T21:44:53;8.00;99.90
18686;DHT22;9473;52.342;13.110;2023-04-25T21:47:20;7.90;99.90
18686;DHT22;9473;52.342;13.110;2023-04-25T21:49:46;8.00;99.90
18686;DHT22;9473;52.342;13.110;2023-04-25T21:52:13;8.00;99.90
18686;DHT22;9473;52.342;13.110;2023-04-25T21:54:39;7.90;99.90
18686;DHT22;9473;52.342;13.110;2023-04-25T21:57:07;8.00;99.90
18686;DHT22;9473;52.342;13.110;2023-04-25T21:59:35;8.00;99.90
18686;DHT22;9473;52.342;13.110;2023-04-25T22:02:02;7.90;99.90
18686;DHT22;9473;52.342;13.110;2023-04-25T22:04:28;7.90;99.90
18686;DHT22;9473;52.342;13.110;2023-04-25T22:06:55;7.70;99.90
18686;DHT22;9473;52.342;13.110;2023-04-25T22:09:21;7.80;99.90
18686;DHT22;9473;52.342;13.110;2023-04-25T22:11:48;7.80;99.90
18686;DHT22;9473;52.342;13.110;2023-04-25T22:14:19;7.80;99.90
18686;DHT22;9473;52.342;13.110;2023-04-25T22:16:46;7.70;99.90
18686;DHT22;9473;52.342;13.110;2023-04-25T22:19:14;7.90;99.90
18686;DHT22;9473;52.342;13.110;2023-04-25T22:21:40;7.80;99.90
18686;DHT22;9473;52.342;13.110;2023-04-25T22:24:08;7.70;99.90
18686;DHT22;9473;52.342;13.110;2023-04-25T22:26:34;7.70;99.90
18686;DHT22;9473;52.342;13.110;2023-04-25T22:29:01;7.70;99.90
18686;DHT22;9473;52.342;13.110;2023-04-25T22:31:29;7.70;99.90
18686;DHT22;9473;52.342;13.110;2023-04-25T22:33:56;7.60;99.90
18686;DHT22;9473;52.342;13.110;2023-04-25T22:36:22;7.60;99.90
18686;DHT22;9473;52.342;13.110;2023-04-25T22:38:49;7.40;99.90
18686;DHT22;9473;52.342;13.110;2023-04-25T22:41:16;7.60;99.90
18686;DHT22;9473;52.342;13.110;2023-04-25T22:43:43;7.60;99.90
18686;DHT22;9473;52.342;13.110;2023-04-25T22:46:14;7.60;99.90
18686;DHT22;9473;52.342;13.110;2023-04-25T22:48:43;7.50;99.90
18686;DHT22;9473;52.342;13.110;2023-04-25T22:51:10;7.50;99.90
18686;DHT22;9473;52.342;13.110;2023-04-25T22:53:38;7.50;99.90
18686;DHT22;9473;52.342;13.110;2023-04-25T22:56:05;7.50;99.90
18686;DHT22;9473;52.342;13.110;2023-04-25T22:58:31;7.50;99.90
18686;DHT22;9473;52.342;13.110;2023-04-25T23:00:58;7.50;99.90
18686;DHT22;9473;52.342;13.110;2023-04-25T23:03:25;7.40;99.90
18686;DHT22;9473;52.342;13.110;2023-04-25T23:05:53;7.50;99.90
18686;DHT22;9473;52.342;13.110;2023-04-25T23:08:20;7.60;99.90
18686;DHT22;9473;52.342;13.110;2023-04-25T23:10:46;7.40;99.90
18686;DHT22;9473;52.342;13.110;2023-04-25T23:13:13;7.20;99.90
18686;DHT22;9473;52.342;13.110;2023-04-25T23:15:40;7.40;99.90
18686;DHT22;9473;52.342;13.110;2023-04-25T23:18:06;7.20;99.90
18686;DHT22;9473;52.342;13.110;2023-04-25T23:20:33;7.20;99.90
18686;DHT22;9473;52.342;13.110;2023-04-25T23:23:01;7.20;99.90
18686;DHT22;9473;52.342;13.110;2023-04-25T23:25:27;7.30;99.90
18686;DHT22;9473;52.342;13.110;2023-04-25T23:27:54;7.40;99.90
18686;DHT22;9473;52.342;13.110;2023-04-25T23:30:20;7.40;99.90
18686;DHT22;9473;52.342;13.110;2023-04-25T23:32:47;7.40;99.90
18686;DHT22;9473;52.342;13.110;2023-04-25T23:35:13;7.40;99.90
18686;DHT22;9473;52.342;13.110;2023-04-25T23:37:40;7.20;99.90
18686;DHT22;9473;52.342;13.110;2023-04-25T23:40:09;7.20;99.90
18686;DHT22;9473;52.342;13.110;2023-04-25T23:42:36;7.30;99.90
18686;DHT22;9473;52.342;13.110;2023-04-25T23:45:04;7.30;99.90
18686;DHT22;9473;52.342;13.110;2023-04-25T23:47:31;7.30;99.90
18686;DHT22;9473;52.342;13.110;2023-04-25T23:49:58;7.10;99.90
18686;DHT22;9473;52.342;13.110;2023-04-25T23:52:24;7.10;99.90
18686;DHT22;9473;52.342;13.110;2023-04-25T23:54:52;7.00;99.90
18686;DHT22;9473;52.342;13.110;2023-04-25T23:57:20;6.90;99.90
18686;DHT22;9473;52.342;13.110;2023-04-25T23:59:47;6.90;99.90
